sensor_id;sensor_type;location;lat;lon;timestamp;P1;durP1;ratioP1;P2;durP2;ratioP2
37203;SDS011;23098;48.054;10.636;2023-06-14T00:01:16;4.55;;;3.55;;
37203;SDS011;23098;48.054;10.636;2023-06-14T00:03:45;8.80;;;3.65;;
37203;SDS011;23098;48.054;10.636;2023-06-14T00:06:12;6.90;;;3.92;;
37203;SDS011;23098;48.054;10.636;2023-06-14T00:08:38;5.28;;;3.35;;
37203;SDS011;23098;48.054;10.636;2023-06-14T00:11:04;8.02;;;3.90;;
37203;SDS011;23098;48.054;10.636;2023-06-14T00:13:30;6.15;;;4.03;;
37203;SDS011;23098;48.054;10.636;2023-06-14T00:15:56;5.80;;;3.47;;
37203;SDS011;23098;48.054;10.636;2023-06-14T00:18:22;5.75;;;3.55;;
37203;SDS011;23098;48.054;10.636;2023-06-14T00:20:50;4.72;;;3.47;;
37203;SDS011;23098;48.054;10.636;2023-06-14T00:23:16;5.30;;;3.60;;
37203;SDS011;23098;48.054;10.636;2023-06-14T00:25:42;8.18;;;3.72;;
37203;SDS011;23098;48.054;10.636;2023-06-14T00:28:08;8.57;;;3.60;;
37203;SDS011;23098;48.054;10.636;2023-06-14T00:30:33;6.40;;;3.80;;
37203;SDS011;23098;48.054;10.636;2023-06-14T00:33:00;8.80;;;3.58;;
37203;SDS011;23098;48.054;10.636;2023-06-14T00:35:26;6.75;;;3.47;;
37203;SDS011;23098;48.054;10.636;2023-06-14T00:37:52;4.90;;;3.80;;
37203;SDS011;23098;48.054;10.636;2023-06-14T00:40:19;6.35;;;3.60;;
37203;SDS011;23098;48.054;10.636;2023-06-14T00:42:45;5.40;;;3.65;;
37203;SDS011;23098;48.054;10.636;2023-06-14T00:45:11;8.73;;;4.00;;
37203;SDS011;23098;48.054;10.636;2023-06-14T00:47:36;6.82;;;3.88;;
37203;SDS011;23098;48.054;10.636;2023-06-14T00:50:04;6.40;;;4.45;;
37203;SDS011;23098;48.054;10.636;2023-06-14T00:52:31;4.82;;;4.00;;
37203;SDS011;23098;48.054;10.636;2023-06-14T00:54:57;9.63;;;4.00;;
37203;SDS011;23098;48.054;10.636;2023-06-14T00:57:23;6.65;;;4.05;;
37203;SDS011;23098;48.054;10.636;2023-06-14T00:59:49;10.02;;;4.30;;
37203;SDS011;23098;48.054;10.636;2023-06-14T01:02:15;5.63;;;4.40;;
37203;SDS011;23098;48.054;10.636;2023-06-14T01:04:42;6.22;;;4.03;;
37203;SDS011;23098;48.054;10.636;2023-06-14T01:13:06;6.47;;;4.30;;
37203;SDS011;23098;48.054;10.636;2023-06-14T01:15:46;5.10;;;4.22;;
37203;SDS011;23098;48.054;10.636;2023-06-14T01:18:12;7.97;;;4.40;;
37203;SDS011;23098;48.054;10.636;2023-06-14T01:20:45;5.40;;;4.20;;
37203;SDS011;23098;48.054;10.636;2023-06-14T01:23:14;7.20;;;4.70;;
37203;SDS011;23098;48.054;10.636;2023-06-14T01:25:43;7.00;;;4.75;;
37203;SDS011;23098;48.054;10.636;2023-06-14T01:28:09;9.23;;;5.30;;
37203;SDS011;23098;48.054;10.636;2023-06-14T01:30:36;8.05;;;4.95;;
37203;SDS011;23098;48.054;10.636;2023-06-14T01:33:03;8.23;;;5.60;;
37203;SDS011;23098;48.054;10.636;2023-06-14T01:35:30;8.82;;;4.93;;
37203;SDS011;23098;48.054;10.636;2023-06-14T01:37:56;6.55;;;4.85;;
37203;SDS011;23098;48.054;10.636;2023-06-14T01:40:23;6.30;;;4.65;;
37203;SDS011;23098;48.054;10.636;2023-06-14T01:42:50;7.38;;;4.85;;
37203;SDS011;23098;48.054;10.636;2023-06-14T01:45:16;6.22;;;4.88;;
37203;SDS011;23098;48.054;10.636;2023-06-14T01:47:43;6.43;;;4.88;;
37203;SDS011;23098;48.054;10.636;2023-06-14T01:50:10;7.07;;;5.10;;
37203;SDS011;23098;48.054;10.636;2023-06-14T01:52:36;8.23;;;4.95;;
37203;SDS011;23098;48.054;10.636;2023-06-14T01:55:03;9.60;;;5.25;;
37203;SDS011;23098;48.054;10.636;2023-06-14T01:57:30;8.10;;;4.93;;
37203;SDS011;23098;48.054;10.636;2023-06-14T01:59:56;6.75;;;5.00;;
37203;SDS011;23098;48.054;10.636;2023-06-14T02:02:22;7.43;;;5.03;;
37203;SDS011;23098;48.054;10.636;2023-06-14T02:04:47;7.88;;;4.75;;
37203;SDS011;23098;48.054;10.636;2023-06-14T02:07:13;7.47;;;4.80;;
37203;SDS011;23098;48.054;10.636;2023-06-14T02:09:40;6.32;;;4.93;;
37203;SDS011;23098;48.054;10.636;2023-06-14T02:12:06;5.93;;;4.85;;
37203;SDS011;23098;48.054;10.636;2023-06-14T02:14:32;6.10;;;5.10;;
37203;SDS011;23098;48.054;10.636;2023-06-14T02:16:58;6.40;;;4.55;;
37203;SDS011;23098;48.054;10.636;2023-06-14T02:19:26;5.57;;;4.78;;
37203;SDS011;23098;48.054;10.636;2023-06-14T02:21:51;6.95;;;5.32;;
37203;SDS011;23098;48.054;10.636;2023-06-14T02:24:17;6.28;;;4.80;;
37203;SDS011;23098;48.054;10.636;2023-06-14T02:26:43;10.25;;;5.22;;
37203;SDS011;23098;48.054;10.636;2023-06-14T02:29:08;6.43;;;4.80;;
37203;SDS011;23098;48.054;10.636;2023-06-14T02:31:37;6.30;;;4.38;;
37203;SDS011;23098;48.054;10.636;2023-06-14T02:34:03;11.07;;;5.07;;
37203;SDS011;23098;48.054;10.636;2023-06-14T02:36:28;7.65;;;4.90;;
37203;SDS011;23098;48.054;10.636;2023-06-14T02:38:56;7.70;;;4.97;;
37203;SDS011;23098;48.054;10.636;2023-06-14T02:41:23;7.40;;;5.28;;
37203;SDS011;23098;48.054;10.636;2023-06-14T02:43:49;9.43;;;5.20;;
37203;SDS011;23098;48.054;10.636;2023-06-14T02:46:14;7.25;;;5.15;;
37203;SDS011;23098;48.054;10.636;2023-06-14T02:48:40;9.05;;;5.35;;
37203;SDS011;23098;48.054;10.636;2023-06-14T02:51:06;7.72;;;5.18;;
37203;SDS011;23098;48.054;10.636;2023-06-14T02:53:33;6.25;;;5.00;;
37203;SDS011;23098;48.054;10.636;2023-06-14T02:55:59;7.68;;;5.50;;
37203;SDS011;23098;48.054;10.636;2023-06-14T02:58:24;9.85;;;5.07;;
37203;SDS011;23098;48.054;10.636;2023-06-14T03:00:50;7.30;;;5.50;;
37203;SDS011;23098;48.054;10.636;2023-06-14T03:03:17;7.80;;;5.90;;
37203;SDS011;23098;48.054;10.636;2023-06-14T03:05:44;7.25;;;5.47;;
37203;SDS011;23098;48.054;10.636;2023-06-14T03:08:14;8.13;;;5.87;;
37203;SDS011;23098;48.054;10.636;2023-06-14T03:10:47;8.63;;;5.68;;
37203;SDS011;23098;48.054;10.636;2023-06-14T03:13:14;7.68;;;5.82;;
37203;SDS011;23098;48.054;10.636;2023-06-14T03:15:46;9.00;;;5.90;;
37203;SDS011;23098;48.054;10.636;2023-06-14T03:18:12;7.80;;;5.88;;
37203;SDS011;23098;48.054;10.636;2023-06-14T03:20:39;10.95;;;5.70;;
37203;SDS011;23098;48.054;10.636;2023-06-14T03:23:06;8.10;;;5.82;;
37203;SDS011;23098;48.054;10.636;2023-06-14T03:25:32;8.63;;;5.68;;
37203;SDS011;23098;48.054;10.636;2023-06-14T03:28:03;9.38;;;6.20;;
37203;SDS011;23098;48.054;10.636;2023-06-14T03:30:29;10.90;;;6.20;;
37203;SDS011;23098;48.054;10.636;2023-06-14T03:32:55;8.13;;;5.78;;
37203;SDS011;23098;48.054;10.636;2023-06-14T03:35:21;8.32;;;5.75;;
37203;SDS011;23098;48.054;10.636;2023-06-14T03:37:47;8.18;;;5.78;;
37203;SDS011;23098;48.054;10.636;2023-06-14T03:40:14;8.35;;;5.88;;
37203;SDS011;23098;48.054;10.636;2023-06-14T03:42:41;8.45;;;5.82;;
37203;SDS011;23098;48.054;10.636;2023-06-14T03:45:06;8.68;;;5.93;;
37203;SDS011;23098;48.054;10.636;2023-06-14T03:47:32;7.18;;;5.38;;
37203;SDS011;23098;48.054;10.636;2023-06-14T03:49:58;9.65;;;5.85;;
37203;SDS011;23098;48.054;10.636;2023-06-14T03:52:25;8.15;;;5.65;;
37203;SDS011;23098;48.054;10.636;2023-06-14T03:54:51;8.55;;;5.60;;
37203;SDS011;23098;48.054;10.636;2023-06-14T03:57:16;13.40;;;5.68;;
37203;SDS011;23098;48.054;10.636;2023-06-14T03:59:42;8.80;;;5.03;;
37203;SDS011;23098;48.054;10.636;2023-06-14T04:02:08;10.02;;;5.63;;
37203;SDS011;23098;48.054;10.636;2023-06-14T04:04:34;8.90;;;5.88;;
37203;SDS011;23098;48.054;10.636;2023-06-14T04:07:00;7.07;;;5.25;;
37203;SDS011;23098;48.054;10.636;2023-06-14T04:09:28;8.75;;;5.22;;
37203;SDS011;23098;48.054;10.636;2023-06-14T04:11:56;8.23;;;5.40;;
37203;SDS011;23098;48.054;10.636;2023-06-14T04:14:22;7.95;;;5.30;;
37203;SDS011;23098;48.054;10.636;2023-06-14T04:16:47;7.93;;;5.15;;
37203;SDS011;23098;48.054;10.636;2023-06-14T04:19:14;9.70;;;5.18;;
37203;SDS011;23098;48.054;10.636;2023-06-14T04:21:40;7.38;;;4.57;;
37203;SDS011;23098;48.054;10.636;2023-06-14T04:24:06;5.97;;;4.72;;
37203;SDS011;23098;48.054;10.636;2023-06-14T04:26:39;6.43;;;4.60;;
37203;SDS011;23098;48.054;10.636;2023-06-14T04:29:09;6.32;;;4.60;;
37203;SDS011;23098;48.054;10.636;2023-06-14T04:31:39;6.68;;;4.78;;
37203;SDS011;23098;48.054;10.636;2023-06-14T04:34:04;6.75;;;4.90;;
37203;SDS011;23098;48.054;10.636;2023-06-14T04:36:31;6.18;;;4.85;;
37203;SDS011;23098;48.054;10.636;2023-06-14T04:38:59;7.35;;;4.93;;
37203;SDS011;23098;48.054;10.636;2023-06-14T04:41:28;7.75;;;4.47;;
37203;SDS011;23098;48.054;10.636;2023-06-14T04:43:56;5.28;;;4.43;;
37203;SDS011;23098;48.054;10.636;2023-06-14T04:46:23;5.32;;;4.55;;
37203;SDS011;23098;48.054;10.636;2023-06-14T04:48:49;8.90;;;4.55;;
37203;SDS011;23098;48.054;10.636;2023-06-14T04:51:15;5.82;;;4.15;;
37203;SDS011;23098;48.054;10.636;2023-06-14T04:53:41;6.13;;;4.47;;
37203;SDS011;23098;48.054;10.636;2023-06-14T04:56:07;4.95;;;4.10;;
37203;SDS011;23098;48.054;10.636;2023-06-14T04:58:33;7.38;;;4.47;;
37203;SDS011;23098;48.054;10.636;2023-06-14T05:00:59;5.05;;;4.55;;
37203;SDS011;23098;48.054;10.636;2023-06-14T05:03:25;8.13;;;4.65;;
37203;SDS011;23098;48.054;10.636;2023-06-14T05:05:51;6.50;;;4.10;;
37203;SDS011;23098;48.054;10.636;2023-06-14T05:08:18;5.88;;;4.75;;
37203;SDS011;23098;48.054;10.636;2023-06-14T05:10:43;5.63;;;4.28;;
37203;SDS011;23098;48.054;10.636;2023-06-14T05:13:09;4.82;;;4.32;;
37203;SDS011;23098;48.054;10.636;2023-06-14T05:15:35;8.93;;;4.40;;
37203;SDS011;23098;48.054;10.636;2023-06-14T05:18:01;5.97;;;4.63;;
37203;SDS011;23098;48.054;10.636;2023-06-14T05:20:27;6.68;;;4.60;;
37203;SDS011;23098;48.054;10.636;2023-06-14T05:22:53;5.72;;;4.38;;
37203;SDS011;23098;48.054;10.636;2023-06-14T05:25:19;5.75;;;4.60;;
37203;SDS011;23098;48.054;10.636;2023-06-14T05:27:46;4.80;;;4.25;;
37203;SDS011;23098;48.054;10.636;2023-06-14T05:30:12;7.10;;;4.65;;
37203;SDS011;23098;48.054;10.636;2023-06-14T05:32:38;5.30;;;4.20;;
37203;SDS011;23098;48.054;10.636;2023-06-14T05:35:03;5.53;;;4.30;;
37203;SDS011;23098;48.054;10.636;2023-06-14T05:37:30;6.20;;;5.13;;
37203;SDS011;23098;48.054;10.636;2023-06-14T05:39:56;6.43;;;4.55;;
37203;SDS011;23098;48.054;10.636;2023-06-14T05:42:22;5.80;;;4.20;;
37203;SDS011;23098;48.054;10.636;2023-06-14T05:44:47;6.13;;;4.88;;
37203;SDS011;23098;48.054;10.636;2023-06-14T05:47:13;10.55;;;4.60;;
37203;SDS011;23098;48.054;10.636;2023-06-14T05:49:38;4.95;;;4.35;;
37203;SDS011;23098;48.054;10.636;2023-06-14T05:52:04;6.10;;;4.45;;
37203;SDS011;23098;48.054;10.636;2023-06-14T05:54:30;5.90;;;4.47;;
37203;SDS011;23098;48.054;10.636;2023-06-14T05:56:56;5.45;;;4.25;;
37203;SDS011;23098;48.054;10.636;2023-06-14T05:59:26;6.57;;;4.78;;
37203;SDS011;23098;48.054;10.636;2023-06-14T06:01:52;5.55;;;4.10;;
37203;SDS011;23098;48.054;10.636;2023-06-14T06:04:17;7.82;;;4.50;;
37203;SDS011;23098;48.054;10.636;2023-06-14T06:06:43;5.85;;;4.20;;
37203;SDS011;23098;48.054;10.636;2023-06-14T06:09:10;5.65;;;4.25;;
37203;SDS011;23098;48.054;10.636;2023-06-14T06:11:35;8.13;;;4.40;;
37203;SDS011;23098;48.054;10.636;2023-06-14T06:14:01;11.55;;;4.43;;
37203;SDS011;23098;48.054;10.636;2023-06-14T06:16:26;8.43;;;4.55;;
37203;SDS011;23098;48.054;10.636;2023-06-14T06:18:52;5.15;;;4.20;;
37203;SDS011;23098;48.054;10.636;2023-06-14T06:21:17;6.53;;;4.32;;
37203;SDS011;23098;48.054;10.636;2023-06-14T06:23:43;7.15;;;4.55;;
37203;SDS011;23098;48.054;10.636;2023-06-14T06:26:08;8.73;;;4.55;;
37203;SDS011;23098;48.054;10.636;2023-06-14T06:28:34;5.32;;;4.63;;
37203;SDS011;23098;48.054;10.636;2023-06-14T06:31:00;7.20;;;4.68;;
37203;SDS011;23098;48.054;10.636;2023-06-14T06:33:25;6.20;;;4.28;;
37203;SDS011;23098;48.054;10.636;2023-06-14T06:35:51;6.22;;;4.05;;
37203;SDS011;23098;48.054;10.636;2023-06-14T06:38:17;8.10;;;3.97;;
37203;SDS011;23098;48.054;10.636;2023-06-14T06:40:43;6.50;;;4.70;;
37203;SDS011;23098;48.054;10.636;2023-06-14T06:43:09;6.53;;;4.70;;
37203;SDS011;23098;48.054;10.636;2023-06-14T06:45:38;6.72;;;4.85;;
37203;SDS011;23098;48.054;10.636;2023-06-14T06:48:06;8.65;;;4.85;;
37203;SDS011;23098;48.054;10.636;2023-06-14T06:53:08;6.00;;;4.75;;
37203;SDS011;23098;48.054;10.636;2023-06-14T06:55:48;7.43;;;4.90;;
37203;SDS011;23098;48.054;10.636;2023-06-14T06:58:18;5.03;;;4.50;;
37203;SDS011;23098;48.054;10.636;2023-06-14T07:03:39;11.52;;;5.43;;
37203;SDS011;23098;48.054;10.636;2023-06-14T07:06:05;5.57;;;4.47;;
37203;SDS011;23098;48.054;10.636;2023-06-14T07:14:11;10.90;;;4.70;;
37203;SDS011;23098;48.054;10.636;2023-06-14T07:32:41;6.63;;;3.90;;
37203;SDS011;23098;48.054;10.636;2023-06-14T07:35:08;6.47;;;3.83;;
37203;SDS011;23098;48.054;10.636;2023-06-14T07:37:34;7.25;;;4.10;;
37203;SDS011;23098;48.054;10.636;2023-06-14T07:42:35;6.47;;;4.40;;
37203;SDS011;23098;48.054;10.636;2023-06-14T07:45:01;4.90;;;4.18;;
37203;SDS011;23098;48.054;10.636;2023-06-14T07:47:30;7.00;;;4.13;;
37203;SDS011;23098;48.054;10.636;2023-06-14T07:49:56;6.38;;;3.92;;
37203;SDS011;23098;48.054;10.636;2023-06-14T07:52:21;7.45;;;3.75;;
37203;SDS011;23098;48.054;10.636;2023-06-14T07:54:47;4.40;;;3.35;;
37203;SDS011;23098;48.054;10.636;2023-06-14T07:57:13;5.72;;;3.75;;
37203;SDS011;23098;48.054;10.636;2023-06-14T07:59:38;5.72;;;3.67;;
37203;SDS011;23098;48.054;10.636;2023-06-14T08:02:04;5.07;;;3.22;;
37203;SDS011;23098;48.054;10.636;2023-06-14T08:04:29;9.63;;;3.67;;
37203;SDS011;23098;48.054;10.636;2023-06-14T08:06:56;5.20;;;2.92;;
37203;SDS011;23098;48.054;10.636;2023-06-14T08:09:22;4.85;;;3.80;;
37203;SDS011;23098;48.054;10.636;2023-06-14T08:11:50;7.20;;;3.35;;
37203;SDS011;23098;48.054;10.636;2023-06-14T08:14:15;3.72;;;3.03;;
37203;SDS011;23098;48.054;10.636;2023-06-14T08:16:41;4.60;;;3.05;;
37203;SDS011;23098;48.054;10.636;2023-06-14T08:19:06;6.20;;;3.28;;
37203;SDS011;23098;48.054;10.636;2023-06-14T08:21:32;4.82;;;3.35;;
37203;SDS011;23098;48.054;10.636;2023-06-14T08:23:58;3.40;;;3.00;;
37203;SDS011;23098;48.054;10.636;2023-06-14T08:26:24;5.32;;;3.45;;
37203;SDS011;23098;48.054;10.636;2023-06-14T08:28:54;4.05;;;3.03;;
37203;SDS011;23098;48.054;10.636;2023-06-14T08:31:20;4.40;;;3.20;;
37203;SDS011;23098;48.054;10.636;2023-06-14T08:33:45;4.47;;;3.15;;
37203;SDS011;23098;48.054;10.636;2023-06-14T08:36:11;6.50;;;3.28;;
37203;SDS011;23098;48.054;10.636;2023-06-14T08:38:37;7.10;;;3.15;;
37203;SDS011;23098;48.054;10.636;2023-06-14T08:41:04;10.93;;;3.47;;
37203;SDS011;23098;48.054;10.636;2023-06-14T08:43:33;5.35;;;3.38;;
37203;SDS011;23098;48.054;10.636;2023-06-14T08:46:00;4.50;;;2.95;;
37203;SDS011;23098;48.054;10.636;2023-06-14T08:48:28;7.35;;;3.08;;
37203;SDS011;23098;48.054;10.636;2023-06-14T08:50:54;5.03;;;2.90;;
37203;SDS011;23098;48.054;10.636;2023-06-14T08:53:26;7.45;;;3.08;;
37203;SDS011;23098;48.054;10.636;2023-06-14T08:55:53;4.22;;;3.10;;
37203;SDS011;23098;48.054;10.636;2023-06-14T08:58:20;6.90;;;2.90;;
37203;SDS011;23098;48.054;10.636;2023-06-14T09:00:49;4.18;;;3.30;;
37203;SDS011;23098;48.054;10.636;2023-06-14T09:03:17;4.50;;;2.60;;
37203;SDS011;23098;48.054;10.636;2023-06-14T09:05:45;3.47;;;2.90;;
37203;SDS011;23098;48.054;10.636;2023-06-14T09:08:12;4.60;;;2.60;;
37203;SDS011;23098;48.054;10.636;2023-06-14T09:10:37;4.95;;;2.80;;
37203;SDS011;23098;48.054;10.636;2023-06-14T09:13:05;7.85;;;3.22;;
37203;SDS011;23098;48.054;10.636;2023-06-14T09:15:31;6.80;;;3.17;;
37203;SDS011;23098;48.054;10.636;2023-06-14T09:17:58;6.47;;;2.83;;
37203;SDS011;23098;48.054;10.636;2023-06-14T09:20:25;3.15;;;2.63;;
37203;SDS011;23098;48.054;10.636;2023-06-14T09:22:51;3.63;;;2.90;;
37203;SDS011;23098;48.054;10.636;2023-06-14T09:25:18;5.85;;;3.10;;
37203;SDS011;23098;48.054;10.636;2023-06-14T09:27:45;4.78;;;2.90;;
37203;SDS011;23098;48.054;10.636;2023-06-14T09:30:23;5.00;;;2.60;;
37203;SDS011;23098;48.054;10.636;2023-06-14T09:32:48;4.32;;;2.58;;
37203;SDS011;23098;48.054;10.636;2023-06-14T09:35:16;6.07;;;2.85;;
37203;SDS011;23098;48.054;10.636;2023-06-14T09:37:43;4.97;;;3.08;;
37203;SDS011;23098;48.054;10.636;2023-06-14T09:40:09;3.83;;;2.45;;
37203;SDS011;23098;48.054;10.636;2023-06-14T09:42:35;4.28;;;2.83;;
37203;SDS011;23098;48.054;10.636;2023-06-14T09:45:02;5.18;;;2.88;;
37203;SDS011;23098;48.054;10.636;2023-06-14T09:47:28;4.82;;;2.75;;
37203;SDS011;23098;48.054;10.636;2023-06-14T09:49:53;4.18;;;2.80;;
37203;SDS011;23098;48.054;10.636;2023-06-14T09:52:20;3.38;;;2.72;;
37203;SDS011;23098;48.054;10.636;2023-06-14T09:54:47;5.75;;;2.90;;
37203;SDS011;23098;48.054;10.636;2023-06-14T09:57:15;4.63;;;2.50;;
37203;SDS011;23098;48.054;10.636;2023-06-14T09:59:44;4.82;;;3.25;;
37203;SDS011;23098;48.054;10.636;2023-06-14T10:05:15;4.93;;;2.75;;
37203;SDS011;23098;48.054;10.636;2023-06-14T10:07:48;5.78;;;2.78;;
37203;SDS011;23098;48.054;10.636;2023-06-14T10:10:15;4.32;;;2.42;;
37203;SDS011;23098;48.054;10.636;2023-06-14T10:12:40;8.80;;;3.10;;
37203;SDS011;23098;48.054;10.636;2023-06-14T10:18:33;5.43;;;3.10;;
37203;SDS011;23098;48.054;10.636;2023-06-14T10:21:23;7.32;;;3.30;;
37203;SDS011;23098;48.054;10.636;2023-06-14T10:29:14;5.18;;;3.00;;
37203;SDS011;23098;48.054;10.636;2023-06-14T10:34:22;7.72;;;2.88;;
37203;SDS011;23098;48.054;10.636;2023-06-14T10:37:05;3.92;;;3.15;;
37203;SDS011;23098;48.054;10.636;2023-06-14T10:39:42;4.43;;;2.80;;
37203;SDS011;23098;48.054;10.636;2023-06-14T10:42:11;6.18;;;2.90;;
37203;SDS011;23098;48.054;10.636;2023-06-14T10:47:22;4.38;;;2.63;;
37203;SDS011;23098;48.054;10.636;2023-06-14T10:49:52;5.63;;;3.10;;
37203;SDS011;23098;48.054;10.636;2023-06-14T10:52:26;6.65;;;2.78;;
37203;SDS011;23098;48.054;10.636;2023-06-14T10:57:48;4.03;;;3.30;;
37203;SDS011;23098;48.054;10.636;2023-06-14T11:00:22;7.25;;;3.50;;
37203;SDS011;23098;48.054;10.636;2023-06-14T11:06:10;5.63;;;3.20;;
37203;SDS011;23098;48.054;10.636;2023-06-14T11:11:44;4.28;;;3.05;;
37203;SDS011;23098;48.054;10.636;2023-06-14T11:14:11;4.00;;;2.83;;
37203;SDS011;23098;48.054;10.636;2023-06-14T11:16:38;5.15;;;2.90;;
37203;SDS011;23098;48.054;10.636;2023-06-14T11:19:03;4.20;;;3.08;;
37203;SDS011;23098;48.054;10.636;2023-06-14T11:21:31;3.17;;;2.80;;
37203;SDS011;23098;48.054;10.636;2023-06-14T11:23:58;4.80;;;3.10;;
37203;SDS011;23098;48.054;10.636;2023-06-14T11:26:38;4.53;;;3.05;;
37203;SDS011;23098;48.054;10.636;2023-06-14T11:29:07;4.72;;;2.85;;
37203;SDS011;23098;48.054;10.636;2023-06-14T11:31:32;5.25;;;2.63;;
37203;SDS011;23098;48.054;10.636;2023-06-14T11:36:31;4.97;;;3.22;;
37203;SDS011;23098;48.054;10.636;2023-06-14T11:39:07;3.15;;;2.63;;
37203;SDS011;23098;48.054;10.636;2023-06-14T11:41:37;5.38;;;3.13;;
37203;SDS011;23098;48.054;10.636;2023-06-14T11:44:07;7.97;;;3.22;;
37203;SDS011;23098;48.054;10.636;2023-06-14T11:46:33;4.20;;;2.85;;
37203;SDS011;23098;48.054;10.636;2023-06-14T11:48:58;5.93;;;3.10;;
37203;SDS011;23098;48.054;10.636;2023-06-14T11:51:27;4.88;;;2.90;;
37203;SDS011;23098;48.054;10.636;2023-06-14T11:53:54;6.20;;;3.40;;
37203;SDS011;23098;48.054;10.636;2023-06-14T11:56:20;4.10;;;3.20;;
37203;SDS011;23098;48.054;10.636;2023-06-14T11:58:46;4.18;;;3.00;;
37203;SDS011;23098;48.054;10.636;2023-06-14T12:01:16;6.85;;;3.00;;
37203;SDS011;23098;48.054;10.636;2023-06-14T12:03:49;5.07;;;2.92;;
37203;SDS011;23098;48.054;10.636;2023-06-14T12:06:16;6.32;;;3.30;;
37203;SDS011;23098;48.054;10.636;2023-06-14T12:08:50;4.47;;;2.80;;
37203;SDS011;23098;48.054;10.636;2023-06-14T12:11:15;5.00;;;2.95;;
37203;SDS011;23098;48.054;10.636;2023-06-14T12:13:42;7.60;;;3.05;;
37203;SDS011;23098;48.054;10.636;2023-06-14T12:16:09;3.55;;;2.90;;
37203;SDS011;23098;48.054;10.636;2023-06-14T12:18:35;5.93;;;2.90;;
37203;SDS011;23098;48.054;10.636;2023-06-14T12:21:04;7.32;;;3.45;;
37203;SDS011;23098;48.054;10.636;2023-06-14T12:26:12;4.15;;;3.00;;
37203;SDS011;23098;48.054;10.636;2023-06-14T12:28:44;5.95;;;3.00;;
37203;SDS011;23098;48.054;10.636;2023-06-14T12:33:37;4.05;;;2.70;;
37203;SDS011;23098;48.054;10.636;2023-06-14T12:36:04;3.42;;;2.65;;
37203;SDS011;23098;48.054;10.636;2023-06-14T12:38:31;3.75;;;2.70;;
37203;SDS011;23098;48.054;10.636;2023-06-14T12:40:57;3.33;;;2.83;;
37203;SDS011;23098;48.054;10.636;2023-06-14T12:43:23;5.75;;;2.97;;
37203;SDS011;23098;48.054;10.636;2023-06-14T12:45:49;6.13;;;2.85;;
37203;SDS011;23098;48.054;10.636;2023-06-14T12:48:29;6.60;;;2.88;;
37203;SDS011;23098;48.054;10.636;2023-06-14T12:50:56;3.65;;;2.83;;
37203;SDS011;23098;48.054;10.636;2023-06-14T12:53:22;4.50;;;2.92;;
37203;SDS011;23098;48.054;10.636;2023-06-14T12:55:48;4.53;;;2.78;;
37203;SDS011;23098;48.054;10.636;2023-06-14T12:58:13;4.93;;;3.00;;
37203;SDS011;23098;48.054;10.636;2023-06-14T13:00:39;6.18;;;3.00;;
37203;SDS011;23098;48.054;10.636;2023-06-14T13:03:05;4.65;;;2.83;;
37203;SDS011;23098;48.054;10.636;2023-06-14T13:05:31;3.30;;;2.83;;
37203;SDS011;23098;48.054;10.636;2023-06-14T13:07:58;6.00;;;2.92;;
37203;SDS011;23098;48.054;10.636;2023-06-14T13:10:24;3.25;;;2.95;;
37203;SDS011;23098;48.054;10.636;2023-06-14T13:12:50;4.35;;;3.08;;
37203;SDS011;23098;48.054;10.636;2023-06-14T13:15:16;5.68;;;2.78;;
37203;SDS011;23098;48.054;10.636;2023-06-14T13:17:42;5.15;;;2.90;;
37203;SDS011;23098;48.054;10.636;2023-06-14T13:20:09;3.58;;;2.83;;
37203;SDS011;23098;48.054;10.636;2023-06-14T13:22:35;4.47;;;2.92;;
37203;SDS011;23098;48.054;10.636;2023-06-14T13:25:00;4.25;;;2.90;;
37203;SDS011;23098;48.054;10.636;2023-06-14T13:27:27;3.80;;;3.20;;
37203;SDS011;23098;48.054;10.636;2023-06-14T13:29:53;4.50;;;2.88;;
37203;SDS011;23098;48.054;10.636;2023-06-14T13:32:20;5.13;;;3.20;;
37203;SDS011;23098;48.054;10.636;2023-06-14T13:34:47;3.35;;;2.90;;
37203;SDS011;23098;48.054;10.636;2023-06-14T13:37:13;3.75;;;2.92;;
37203;SDS011;23098;48.054;10.636;2023-06-14T13:39:38;4.75;;;2.78;;
37203;SDS011;23098;48.054;10.636;2023-06-14T13:42:04;4.47;;;2.60;;
37203;SDS011;23098;48.054;10.636;2023-06-14T13:44:30;4.18;;;2.80;;
37203;SDS011;23098;48.054;10.636;2023-06-14T13:46:55;2.90;;;2.60;;
37203;SDS011;23098;48.054;10.636;2023-06-14T13:49:21;5.72;;;3.10;;
37203;SDS011;23098;48.054;10.636;2023-06-14T13:51:47;8.15;;;3.40;;
37203;SDS011;23098;48.054;10.636;2023-06-14T13:54:13;5.05;;;3.08;;
37203;SDS011;23098;48.054;10.636;2023-06-14T13:56:40;3.60;;;2.97;;
37203;SDS011;23098;48.054;10.636;2023-06-14T13:59:06;5.15;;;2.90;;
37203;SDS011;23098;48.054;10.636;2023-06-14T14:01:31;4.07;;;2.75;;
37203;SDS011;23098;48.054;10.636;2023-06-14T14:03:58;4.72;;;2.80;;
37203;SDS011;23098;48.054;10.636;2023-06-14T14:06:25;3.15;;;2.85;;
37203;SDS011;23098;48.054;10.636;2023-06-14T14:08:51;3.15;;;2.85;;
37203;SDS011;23098;48.054;10.636;2023-06-14T14:11:17;4.35;;;2.70;;
37203;SDS011;23098;48.054;10.636;2023-06-14T14:13:43;4.95;;;2.92;;
37203;SDS011;23098;48.054;10.636;2023-06-14T14:16:09;5.45;;;2.88;;
37203;SDS011;23098;48.054;10.636;2023-06-14T14:18:35;3.13;;;2.70;;
37203;SDS011;23098;48.054;10.636;2023-06-14T14:21:02;6.53;;;3.13;;
37203;SDS011;23098;48.054;10.636;2023-06-14T14:23:27;5.30;;;2.80;;
37203;SDS011;23098;48.054;10.636;2023-06-14T14:25:53;4.88;;;2.80;;
37203;SDS011;23098;48.054;10.636;2023-06-14T14:28:25;5.63;;;2.70;;
37203;SDS011;23098;48.054;10.636;2023-06-14T14:30:50;4.13;;;2.78;;
37203;SDS011;23098;48.054;10.636;2023-06-14T14:33:16;6.28;;;3.20;;
37203;SDS011;23098;48.054;10.636;2023-06-14T14:35:43;3.45;;;2.83;;
37203;SDS011;23098;48.054;10.636;2023-06-14T14:38:10;6.65;;;2.92;;
37203;SDS011;23098;48.054;10.636;2023-06-14T14:40:41;5.60;;;2.90;;
37203;SDS011;23098;48.054;10.636;2023-06-14T14:43:07;3.20;;;2.45;;
37203;SDS011;23098;48.054;10.636;2023-06-14T14:45:32;4.78;;;2.90;;
37203;SDS011;23098;48.054;10.636;2023-06-14T14:47:58;5.05;;;2.80;;
37203;SDS011;23098;48.054;10.636;2023-06-14T14:50:25;4.72;;;2.90;;
37203;SDS011;23098;48.054;10.636;2023-06-14T14:52:51;4.70;;;2.83;;
37203;SDS011;23098;48.054;10.636;2023-06-14T14:55:16;4.45;;;2.70;;
37203;SDS011;23098;48.054;10.636;2023-06-14T14:57:42;4.78;;;3.10;;
37203;SDS011;23098;48.054;10.636;2023-06-14T15:00:08;4.75;;;2.70;;
37203;SDS011;23098;48.054;10.636;2023-06-14T15:02:34;4.50;;;3.10;;
37203;SDS011;23098;48.054;10.636;2023-06-14T15:05:00;4.35;;;2.78;;
37203;SDS011;23098;48.054;10.636;2023-06-14T15:07:30;8.20;;;2.60;;
37203;SDS011;23098;48.054;10.636;2023-06-14T15:09:56;4.63;;;2.83;;
37203;SDS011;23098;48.054;10.636;2023-06-14T15:12:22;3.50;;;2.50;;
37203;SDS011;23098;48.054;10.636;2023-06-14T15:14:51;6.20;;;3.08;;
37203;SDS011;23098;48.054;10.636;2023-06-14T15:17:18;5.47;;;2.80;;
37203;SDS011;23098;48.054;10.636;2023-06-14T15:19:44;9.68;;;2.72;;
37203;SDS011;23098;48.054;10.636;2023-06-14T15:22:11;6.15;;;2.90;;
37203;SDS011;23098;48.054;10.636;2023-06-14T15:24:37;7.40;;;2.50;;
37203;SDS011;23098;48.054;10.636;2023-06-14T15:27:02;3.17;;;2.47;;
37203;SDS011;23098;48.054;10.636;2023-06-14T15:29:28;3.85;;;2.60;;
37203;SDS011;23098;48.054;10.636;2023-06-14T15:31:53;3.33;;;2.75;;
37203;SDS011;23098;48.054;10.636;2023-06-14T15:37:06;3.65;;;2.83;;
37203;SDS011;23098;48.054;10.636;2023-06-14T15:42:35;9.02;;;3.00;;
37203;SDS011;23098;48.054;10.636;2023-06-14T15:45:00;6.15;;;2.95;;
37203;SDS011;23098;48.054;10.636;2023-06-14T15:48:02;3.13;;;2.50;;